Orangeburg, SC

2:23 PM EST on March 05, 2015 (GMT -0500)
APRSWXNET Orangeburg SC US | Change Station
CLOSE
Current Station
Personal Weather Station
Location: Cordova, SC
Elevation: 206 ft
Nearby Weather Stations
Active Advisory: Lake Wind Advisory

Elev 206 ft 33.49 °N, 80.93 °W | Updated 37 minutes ago

Partly Cloudy
Partly Cloudy
80 °F
Feels Like 82 °F
N
10
Wind Variable Wind from SW
Gusts 23.0 mph

Today
High -- | Low -- °F
--% Chance of Precip.
Yesterday
High -- | Low -- °F
Precip. -- in
6:47 AM 6:23 PM
Full, 100% visible
Pressure 29.90 in
Visibility 10.0 miles
Clouds Scattered Clouds 4700 ft
Scattered Clouds 5500 ft
Heat Index 82 °F
Dew Point 65 °F
Humidity 61%
Rainfall in
Snow Depth Not available.
UV 5 out of 12
Pollen 8.10 out of 12
Air Quality Not available.
Flu Activity Not available.
METAR KOGB 051853Z AUTO 24022G29KT 10SM SCT047 SCT055 28/15 A2990 RMK AO2 PK WND 22035/1838 RAB01E11B40E53 SLP124 P0000 T02780150

More Conditions Fewer Conditions

Pressure 29.90 in
Visibility 10.0 miles
Clouds Scattered Clouds 4700 ft
Scattered Clouds 5500 ft
Heat Index 82 °F
Dew Point 65 °F
Humidity 61%
Rainfall in
Snow Depth Not available.
UV 5 out of 12
Pollen 8.10 out of 12
Air Quality Not available.
Flu Activity Not available.
METAR KOGB 051853Z AUTO 24022G29KT 10SM SCT047 SCT055 28/15 A2990 RMK AO2 PK WND 22035/1838 RAB01E11B40E53 SLP124 P0000 T02780150

More Conditions Fewer Conditions

10-Day Weather Forecast

Almanac

Astronomy

Mar. 05, 2015 Rise Set
Actual Time
Civil Twilight
Nautical Twilight
Astronomical Twilight
Moon
Length of Visible Light
Length of Day
Tomorrow will be .
, % of the Moon is Illuminated

Today's Extremes

State Highs State Lows

Community

WunderPhotos

Upload Photos

1,802,915 photos uploaded!

WunderBlogs® & News

Nearby

Air Quality

  Air Quality AQ Index Pollutant
Not available.

Snow Depth

Station Depth Elevation

Earthquake Activity

City Distance Mag. Time & Date
Minimum magnitude displayed is 2.5.

Coastal Water Temperatures

Place Temperature

Nearby Weather Stations

Lake Wind Advisory
Statement as of 12:53 PM EST on March 05, 2015

... Lake Wind Advisory remains in effect until 4 am EST Friday...

* timing... through 4 am Friday morning.

* Winds... gusts around 30 knots this afternoon and evening
decreasing slightly to around 25 knots after midnight.

* Impacts... strong gusty winds will make area lakes dangerous.

Precautionary/preparedness actions...

A lake Wind Advisory indicates that winds will cause rough chop
on area lakes. Small boats and personal watercraft will be
especially prone to capsizing.